sensor_id;sensor_type;location;lat;lon;timestamp;pressure;altitude;pressure_sealevel;temperature;humidity
9905;BME280;4991;43.566;27.820;2022-07-11T00:01:46;98469.75;;;16.54;100.00
9905;BME280;4991;43.566;27.820;2022-07-11T00:04:11;98469.66;;;16.51;100.00
9905;BME280;4991;43.566;27.820;2022-07-11T00:06:37;98469.66;;;16.51;100.00
9905;BME280;4991;43.566;27.820;2022-07-11T00:09:02;98470.56;;;16.43;100.00
9905;BME280;4991;43.566;27.820;2022-07-11T00:11:28;98466.09;;;16.38;100.00
9905;BME280;4991;43.566;27.820;2022-07-11T00:13:54;98479.44;;;16.36;100.00
9905;BME280;4991;43.566;27.820;2022-07-11T00:16:19;98478.84;;;16.31;100.00
9905;BME280;4991;43.566;27.820;2022-07-11T00:18:45;98473.13;;;16.36;100.00
9905;BME280;4991;43.566;27.820;2022-07-11T00:21:11;98474.41;;;16.26;100.00
9905;BME280;4991;43.566;27.820;2022-07-11T00:23:37;98481.75;;;16.22;100.00
9905;BME280;4991;43.566;27.820;2022-07-11T00:26:03;98476.25;;;16.22;100.00
9905;BME280;4991;43.566;27.820;2022-07-11T00:28:29;98477.06;;;16.23;100.00
9905;BME280;4991;43.566;27.820;2022-07-11T00:30:54;98485.66;;;16.21;100.00
9905;BME280;4991;43.566;27.820;2022-07-11T00:33:20;98494.56;;;16.18;100.00
9905;BME280;4991;43.566;27.820;2022-07-11T00:35:46;98496.19;;;16.19;100.00
9905;BME280;4991;43.566;27.820;2022-07-11T00:38:12;98490.22;;;16.17;100.00
9905;BME280;4991;43.566;27.820;2022-07-11T00:40:38;98500.53;;;16.20;100.00
9905;BME280;4991;43.566;27.820;2022-07-11T00:43:04;98505.13;;;16.16;100.00
9905;BME280;4991;43.566;27.820;2022-07-11T00:45:30;98507.97;;;16.20;100.00
9905;BME280;4991;43.566;27.820;2022-07-11T00:47:55;98501.91;;;16.14;100.00
9905;BME280;4991;43.566;27.820;2022-07-11T00:50:22;98512.44;;;16.12;100.00
9905;BME280;4991;43.566;27.820;2022-07-11T00:52:53;98500.88;;;16.07;100.00
9905;BME280;4991;43.566;27.820;2022-07-11T00:55:21;98501.94;;;16.02;100.00
9905;BME280;4991;43.566;27.820;2022-07-11T00:57:46;98500.00;;;16.03;100.00
9905;BME280;4991;43.566;27.820;2022-07-11T01:00:12;98511.22;;;15.98;100.00
9905;BME280;4991;43.566;27.820;2022-07-11T01:02:39;98510.28;;;15.94;100.00
9905;BME280;4991;43.566;27.820;2022-07-11T01:05:05;98513.41;;;15.92;100.00
9905;BME280;4991;43.566;27.820;2022-07-11T01:07:31;98512.63;;;15.92;100.00
9905;BME280;4991;43.566;27.820;2022-07-11T01:09:58;98513.03;;;15.94;100.00
9905;BME280;4991;43.566;27.820;2022-07-11T01:12:24;98518.00;;;15.88;100.00
9905;BME280;4991;43.566;27.820;2022-07-11T01:14:56;98515.59;;;15.87;100.00
9905;BME280;4991;43.566;27.820;2022-07-11T01:17:24;98522.09;;;15.82;100.00
9905;BME280;4991;43.566;27.820;2022-07-11T01:19:50;98516.50;;;15.79;100.00
9905;BME280;4991;43.566;27.820;2022-07-11T01:22:18;98505.75;;;15.74;100.00
9905;BME280;4991;43.566;27.820;2022-07-11T01:24:46;98513.06;;;15.70;100.00
9905;BME280;4991;43.566;27.820;2022-07-11T01:27:12;98512.97;;;15.66;100.00
9905;BME280;4991;43.566;27.820;2022-07-11T01:29:39;98519.94;;;15.64;100.00
9905;BME280;4991;43.566;27.820;2022-07-11T01:32:06;98512.84;;;15.63;100.00
9905;BME280;4991;43.566;27.820;2022-07-11T01:34:32;98523.94;;;15.66;100.00
9905;BME280;4991;43.566;27.820;2022-07-11T01:36:58;98527.72;;;15.62;100.00
9905;BME280;4991;43.566;27.820;2022-07-11T01:39:23;98528.50;;;15.62;100.00
9905;BME280;4991;43.566;27.820;2022-07-11T01:41:49;98534.81;;;15.63;100.00
9905;BME280;4991;43.566;27.820;2022-07-11T01:44:15;98536.66;;;15.59;100.00
9905;BME280;4991;43.566;27.820;2022-07-11T01:46:40;98523.00;;;15.62;100.00
9905;BME280;4991;43.566;27.820;2022-07-11T01:49:06;98531.47;;;15.57;100.00
9905;BME280;4991;43.566;27.820;2022-07-11T01:51:32;98538.72;;;15.62;100.00
9905;BME280;4991;43.566;27.820;2022-07-11T01:53:57;98533.56;;;15.60;100.00
9905;BME280;4991;43.566;27.820;2022-07-11T01:56:23;98534.81;;;15.63;100.00
9905;BME280;4991;43.566;27.820;2022-07-11T01:58:49;98530.22;;;15.55;100.00
9905;BME280;4991;43.566;27.820;2022-07-11T02:01:15;98528.19;;;15.52;100.00
9905;BME280;4991;43.566;27.820;2022-07-11T02:03:41;98527.72;;;15.49;100.00
9905;BME280;4991;43.566;27.820;2022-07-11T02:06:07;98535.13;;;15.49;100.00
9905;BME280;4991;43.566;27.820;2022-07-11T02:08:33;98528.97;;;15.52;100.00
9905;BME280;4991;43.566;27.820;2022-07-11T02:11:00;98533.44;;;15.44;100.00
9905;BME280;4991;43.566;27.820;2022-07-11T02:13:25;98530.91;;;15.39;100.00
9905;BME280;4991;43.566;27.820;2022-07-11T02:15:51;98531.38;;;15.41;100.00
9905;BME280;4991;43.566;27.820;2022-07-11T02:18:19;98529.75;;;15.40;100.00
9905;BME280;4991;43.566;27.820;2022-07-11T02:20:45;98520.59;;;15.36;100.00
9905;BME280;4991;43.566;27.820;2022-07-11T02:23:18;98528.97;;;15.40;100.00
9905;BME280;4991;43.566;27.820;2022-07-11T02:25:44;98536.25;;;15.36;100.00
9905;BME280;4991;43.566;27.820;2022-07-11T02:28:10;98545.44;;;15.40;100.00
9905;BME280;4991;43.566;27.820;2022-07-11T02:30:38;98547.38;;;15.39;100.00
9905;BME280;4991;43.566;27.820;2022-07-11T02:33:05;98545.16;;;15.33;100.00
9905;BME280;4991;43.566;27.820;2022-07-11T02:35:33;98545.84;;;15.30;100.00
9905;BME280;4991;43.566;27.820;2022-07-11T02:38:00;98545.38;;;15.28;100.00
9905;BME280;4991;43.566;27.820;2022-07-11T02:40:26;98547.66;;;15.26;100.00
9905;BME280;4991;43.566;27.820;2022-07-11T02:42:55;98553.81;;;15.23;100.00
9905;BME280;4991;43.566;27.820;2022-07-11T02:45:21;98546.53;;;15.27;100.00
9905;BME280;4991;43.566;27.820;2022-07-11T02:47:47;98555.06;;;15.25;100.00
9905;BME280;4991;43.566;27.820;2022-07-11T02:50:13;98557.28;;;15.32;100.00
9905;BME280;4991;43.566;27.820;2022-07-11T02:52:40;98560.47;;;15.34;100.00
9905;BME280;4991;43.566;27.820;2022-07-11T02:55:08;98559.56;;;15.30;100.00
9905;BME280;4991;43.566;27.820;2022-07-11T02:57:35;98565.25;;;15.25;100.00
9905;BME280;4991;43.566;27.820;2022-07-11T03:00:05;98571.31;;;15.18;100.00
9905;BME280;4991;43.566;27.820;2022-07-11T03:02:32;98572.69;;;15.24;100.00
9905;BME280;4991;43.566;27.820;2022-07-11T03:04:58;98582.97;;;15.27;100.00
9905;BME280;4991;43.566;27.820;2022-07-11T03:07:27;98580.56;;;15.26;100.00
9905;BME280;4991;43.566;27.820;2022-07-11T03:09:54;98586.53;;;15.28;100.00
9905;BME280;4991;43.566;27.820;2022-07-11T03:12:20;98580.59;;;15.38;100.00
9905;BME280;4991;43.566;27.820;2022-07-11T03:14:46;98589.13;;;15.45;100.00
9905;BME280;4991;43.566;27.820;2022-07-11T03:17:12;98584.88;;;15.47;100.00
9905;BME280;4991;43.566;27.820;2022-07-11T03:19:37;98591.66;;;15.50;100.00
9905;BME280;4991;43.566;27.820;2022-07-11T03:22:04;98592.34;;;15.59;100.00
9905;BME280;4991;43.566;27.820;2022-07-11T03:24:30;98601.03;;;15.61;100.00
9905;BME280;4991;43.566;27.820;2022-07-11T03:26:56;98603.91;;;15.65;100.00
9905;BME280;4991;43.566;27.820;2022-07-11T03:29:22;98597.38;;;15.69;100.00
9905;BME280;4991;43.566;27.820;2022-07-11T03:31:47;98599.31;;;15.69;100.00
9905;BME280;4991;43.566;27.820;2022-07-11T03:34:13;98599.09;;;15.74;100.00
9905;BME280;4991;43.566;27.820;2022-07-11T03:36:38;98596.13;;;15.79;100.00
9905;BME280;4991;43.566;27.820;2022-07-11T03:39:04;98607.69;;;15.84;100.00
9905;BME280;4991;43.566;27.820;2022-07-11T03:41:30;98596.34;;;15.86;100.00
9905;BME280;4991;43.566;27.820;2022-07-11T03:43:55;98592.13;;;15.88;100.00
9905;BME280;4991;43.566;27.820;2022-07-11T03:46:23;98595.22;;;15.87;100.00
9905;BME280;4991;43.566;27.820;2022-07-11T03:48:49;98600.94;;;15.94;100.00
9905;BME280;4991;43.566;27.820;2022-07-11T03:51:17;98599.34;;;15.93;100.00
9905;BME280;4991;43.566;27.820;2022-07-11T03:53:43;98607.81;;;16.00;100.00
9905;BME280;4991;43.566;27.820;2022-07-11T03:56:09;98615.38;;;16.03;100.00
9905;BME280;4991;43.566;27.820;2022-07-11T03:58:35;98613.44;;;16.03;100.00
9905;BME280;4991;43.566;27.820;2022-07-11T04:01:01;98616.50;;;16.14;100.00
9905;BME280;4991;43.566;27.820;2022-07-11T04:03:27;98616.03;;;16.24;100.00
9905;BME280;4991;43.566;27.820;2022-07-11T04:05:52;98624.75;;;16.26;100.00
9905;BME280;4991;43.566;27.820;2022-07-11T04:08:18;98611.00;;;16.26;100.00
9905;BME280;4991;43.566;27.820;2022-07-11T04:10:43;98612.13;;;16.37;100.00
9905;BME280;4991;43.566;27.820;2022-07-11T04:13:09;98616.50;;;16.38;100.00
9905;BME280;4991;43.566;27.820;2022-07-11T04:15:35;98621.63;;;16.39;100.00
9905;BME280;4991;43.566;27.820;2022-07-11T04:18:00;98623.03;;;16.45;100.00
9905;BME280;4991;43.566;27.820;2022-07-11T04:20:26;98613.38;;;16.39;100.00
9905;BME280;4991;43.566;27.820;2022-07-11T04:22:52;98622.31;;;16.48;100.00
9905;BME280;4991;43.566;27.820;2022-07-11T04:25:18;98628.63;;;16.49;100.00
9905;BME280;4991;43.566;27.820;2022-07-11T04:27:45;98624.59;;;16.58;100.00
9905;BME280;4991;43.566;27.820;2022-07-11T04:30:11;98623.22;;;16.64;100.00
9905;BME280;4991;43.566;27.820;2022-07-11T04:32:37;98631.91;;;16.66;100.00
9905;BME280;4991;43.566;27.820;2022-07-11T04:35:04;98624.69;;;16.74;100.00
9905;BME280;4991;43.566;27.820;2022-07-11T04:37:29;98622.50;;;16.80;100.00
9905;BME280;4991;43.566;27.820;2022-07-11T04:39:55;98616.84;;;16.88;100.00
9905;BME280;4991;43.566;27.820;2022-07-11T04:42:20;98620.28;;;16.85;100.00
9905;BME280;4991;43.566;27.820;2022-07-11T04:44:47;98612.81;;;16.98;100.00
9905;BME280;4991;43.566;27.820;2022-07-11T04:47:13;98615.75;;;17.05;100.00
9905;BME280;4991;43.566;27.820;2022-07-11T04:49:38;98618.94;;;17.07;100.00
9905;BME280;4991;43.566;27.820;2022-07-11T04:52:04;98611.50;;;17.07;100.00
9905;BME280;4991;43.566;27.820;2022-07-11T04:54:30;98619.84;;;17.11;100.00
9905;BME280;4991;43.566;27.820;2022-07-11T04:56:56;98613.75;;;17.17;100.00
9905;BME280;4991;43.566;27.820;2022-07-11T04:59:22;98615.44;;;17.22;100.00
9905;BME280;4991;43.566;27.820;2022-07-11T05:01:52;98620.25;;;17.25;100.00
9905;BME280;4991;43.566;27.820;2022-07-11T05:04:17;98625.84;;;17.28;100.00
9905;BME280;4991;43.566;27.820;2022-07-11T05:06:43;98625.38;;;17.26;100.00
9905;BME280;4991;43.566;27.820;2022-07-11T05:09:08;98623.66;;;17.34;100.00
9905;BME280;4991;43.566;27.820;2022-07-11T05:11:35;98642.56;;;17.35;100.00
9905;BME280;4991;43.566;27.820;2022-07-11T05:14:01;98641.50;;;17.40;100.00
9905;BME280;4991;43.566;27.820;2022-07-11T05:16:27;98642.19;;;17.49;100.00
9905;BME280;4991;43.566;27.820;2022-07-11T05:18:53;98637.56;;;17.53;100.00
9905;BME280;4991;43.566;27.820;2022-07-11T05:21:19;98636.94;;;17.59;100.00
9905;BME280;4991;43.566;27.820;2022-07-11T05:23:48;98642.81;;;17.58;100.00
9905;BME280;4991;43.566;27.820;2022-07-11T05:26:14;98645.19;;;17.59;100.00
9905;BME280;4991;43.566;27.820;2022-07-11T05:28:41;98651.78;;;17.55;100.00
9905;BME280;4991;43.566;27.820;2022-07-11T05:31:07;98653.28;;;17.68;100.00
9905;BME280;4991;43.566;27.820;2022-07-11T05:33:32;98653.94;;;17.77;100.00
9905;BME280;4991;43.566;27.820;2022-07-11T05:36:00;98659.81;;;17.91;100.00
9905;BME280;4991;43.566;27.820;2022-07-11T05:38:26;98654.75;;;17.93;100.00
9905;BME280;4991;43.566;27.820;2022-07-11T05:40:52;98662.03;;;18.01;100.00
9905;BME280;4991;43.566;27.820;2022-07-11T05:43:18;98656.97;;;18.03;100.00
9905;BME280;4991;43.566;27.820;2022-07-11T05:45:43;98652.44;;;18.11;100.00
9905;BME280;4991;43.566;27.820;2022-07-11T05:48:09;98644.50;;;18.09;100.00
9905;BME280;4991;43.566;27.820;2022-07-11T05:50:35;98649.41;;;18.00;100.00
9905;BME280;4991;43.566;27.820;2022-07-11T05:53:01;98656.88;;;17.99;100.00
9905;BME280;4991;43.566;27.820;2022-07-11T05:55:29;98661.00;;;18.06;100.00
9905;BME280;4991;43.566;27.820;2022-07-11T05:57:54;98664.25;;;18.11;100.00
9905;BME280;4991;43.566;27.820;2022-07-11T06:00:20;98666.75;;;18.16;100.00
9905;BME280;4991;43.566;27.820;2022-07-11T06:02:51;98667.72;;;18.24;100.00
9905;BME280;4991;43.566;27.820;2022-07-11T06:05:17;98670.84;;;18.22;100.00
9905;BME280;4991;43.566;27.820;2022-07-11T06:07:42;98673.59;;;18.22;100.00
9905;BME280;4991;43.566;27.820;2022-07-11T06:10:26;98662.72;;;18.29;100.00
9905;BME280;4991;43.566;27.820;2022-07-11T06:12:53;98682.19;;;18.36;100.00
9905;BME280;4991;43.566;27.820;2022-07-11T06:15:19;98675.09;;;18.35;100.00
9905;BME280;4991;43.566;27.820;2022-07-11T06:17:45;98665.16;;;18.46;100.00
9905;BME280;4991;43.566;27.820;2022-07-11T06:20:11;98669.75;;;18.58;100.00
9905;BME280;4991;43.566;27.820;2022-07-11T06:22:39;98673.31;;;18.58;100.00
9905;BME280;4991;43.566;27.820;2022-07-11T06:25:06;98677.09;;;18.69;100.00
9905;BME280;4991;43.566;27.820;2022-07-11T06:27:33;98678.00;;;18.73;100.00
9905;BME280;4991;43.566;27.820;2022-07-11T06:29:58;98681.78;;;18.84;100.00
9905;BME280;4991;43.566;27.820;2022-07-11T06:32:24;98683.66;;;18.80;100.00
9905;BME280;4991;43.566;27.820;2022-07-11T06:34:50;98693.19;;;18.83;100.00
9905;BME280;4991;43.566;27.820;2022-07-11T06:37:17;98680.31;;;18.90;100.00
9905;BME280;4991;43.566;27.820;2022-07-11T06:39:43;98683.97;;;18.94;100.00
9905;BME280;4991;43.566;27.820;2022-07-11T06:42:09;98689.50;;;19.13;100.00
9905;BME280;4991;43.566;27.820;2022-07-11T06:44:34;98681.75;;;19.00;100.00
9905;BME280;4991;43.566;27.820;2022-07-11T06:47:00;98685.88;;;19.09;100.00
9905;BME280;4991;43.566;27.820;2022-07-11T06:49:26;98683.56;;;19.11;100.00
9905;BME280;4991;43.566;27.820;2022-07-11T06:51:51;98684.06;;;19.17;100.00
9905;BME280;4991;43.566;27.820;2022-07-11T06:54:17;98686.91;;;19.20;100.00
9905;BME280;4991;43.566;27.820;2022-07-11T06:56:42;98678.97;;;19.19;100.00
9905;BME280;4991;43.566;27.820;2022-07-11T06:59:08;98685.31;;;19.19;100.00
9905;BME280;4991;43.566;27.820;2022-07-11T07:01:34;98681.09;;;19.25;100.00
9905;BME280;4991;43.566;27.820;2022-07-11T07:03:59;98677.41;;;19.37;100.00
9905;BME280;4991;43.566;27.820;2022-07-11T07:06:25;98681.34;;;19.36;100.00
9905;BME280;4991;43.566;27.820;2022-07-11T07:08:50;98684.75;;;19.49;100.00
9905;BME280;4991;43.566;27.820;2022-07-11T07:11:16;98679.72;;;19.54;100.00
9905;BME280;4991;43.566;27.820;2022-07-11T07:13:42;98683.78;;;19.60;100.00
9905;BME280;4991;43.566;27.820;2022-07-11T07:16:07;98675.94;;;19.62;100.00
9905;BME280;4991;43.566;27.820;2022-07-11T07:18:33;98670.31;;;19.78;100.00
9905;BME280;4991;43.566;27.820;2022-07-11T07:20:59;98666.38;;;19.79;100.00
9905;BME280;4991;43.566;27.820;2022-07-11T07:23:24;98662.41;;;19.76;100.00
9905;BME280;4991;43.566;27.820;2022-07-11T07:25:50;98663.00;;;19.89;100.00
9905;BME280;4991;43.566;27.820;2022-07-11T07:28:16;98657.13;;;19.90;100.00
9905;BME280;4991;43.566;27.820;2022-07-11T07:30:43;98666.56;;;20.12;100.00
9905;BME280;4991;43.566;27.820;2022-07-11T07:33:12;98672.09;;;20.12;100.00
9905;BME280;4991;43.566;27.820;2022-07-11T07:35:38;98664.25;;;20.14;100.00
9905;BME280;4991;43.566;27.820;2022-07-11T07:38:05;98660.81;;;20.20;100.00
9905;BME280;4991;43.566;27.820;2022-07-11T07:40:30;98675.25;;;20.33;100.00
9905;BME280;4991;43.566;27.820;2022-07-11T07:42:56;98665.84;;;20.37;100.00
9905;BME280;4991;43.566;27.820;2022-07-11T07:45:22;98671.59;;;20.51;100.00
9905;BME280;4991;43.566;27.820;2022-07-11T07:47:48;98678.81;;;20.60;100.00
9905;BME280;4991;43.566;27.820;2022-07-11T07:50:14;98676.97;;;20.67;100.00
9905;BME280;4991;43.566;27.820;2022-07-11T07:52:40;98679.69;;;20.64;100.00
9905;BME280;4991;43.566;27.820;2022-07-11T07:55:06;98671.50;;;20.71;100.00
9905;BME280;4991;43.566;27.820;2022-07-11T07:57:32;98683.34;;;20.71;100.00
9905;BME280;4991;43.566;27.820;2022-07-11T07:59:57;98684.75;;;20.84;100.00
9905;BME280;4991;43.566;27.820;2022-07-11T08:02:43;98686.50;;;20.96;100.00
9905;BME280;4991;43.566;27.820;2022-07-11T08:05:09;98686.69;;;21.10;100.00
9905;BME280;4991;43.566;27.820;2022-07-11T08:07:35;98682.50;;;21.23;100.00
9905;BME280;4991;43.566;27.820;2022-07-11T08:10:04;98679.41;;;21.28;100.00
9905;BME280;4991;43.566;27.820;2022-07-11T08:12:29;98686.19;;;21.30;100.00
9905;BME280;4991;43.566;27.820;2022-07-11T08:14:55;98681.75;;;21.22;100.00
9905;BME280;4991;43.566;27.820;2022-07-11T08:17:21;98686.47;;;21.22;100.00
9905;BME280;4991;43.566;27.820;2022-07-11T08:19:46;98681.84;;;21.33;100.00
9905;BME280;4991;43.566;27.820;2022-07-11T08:22:12;98692.56;;;21.34;100.00
9905;BME280;4991;43.566;27.820;2022-07-11T08:24:37;98691.41;;;21.35;100.00
9905;BME280;4991;43.566;27.820;2022-07-11T08:27:03;98686.41;;;21.48;100.00
9905;BME280;4991;43.566;27.820;2022-07-11T08:29:29;98691.38;;;21.68;100.00
9905;BME280;4991;43.566;27.820;2022-07-11T08:31:55;98692.84;;;21.89;100.00
9905;BME280;4991;43.566;27.820;2022-07-11T08:34:20;98683.59;;;21.77;100.00
9905;BME280;4991;43.566;27.820;2022-07-11T08:36:45;98694.34;;;21.83;100.00
9905;BME280;4991;43.566;27.820;2022-07-11T08:39:11;98691.19;;;21.84;100.00
9905;BME280;4991;43.566;27.820;2022-07-11T08:41:42;98687.34;;;21.96;100.00
9905;BME280;4991;43.566;27.820;2022-07-11T08:44:08;98691.06;;;22.14;100.00
9905;BME280;4991;43.566;27.820;2022-07-11T08:46:34;98680.88;;;22.25;100.00
9905;BME280;4991;43.566;27.820;2022-07-11T08:49:02;98685.34;;;22.36;100.00
9905;BME280;4991;43.566;27.820;2022-07-11T08:51:28;98694.19;;;22.52;100.00
9905;BME280;4991;43.566;27.820;2022-07-11T08:53:55;98692.59;;;22.51;100.00
9905;BME280;4991;43.566;27.820;2022-07-11T08:56:21;98693.91;;;22.64;100.00
9905;BME280;4991;43.566;27.820;2022-07-11T08:58:47;98680.09;;;22.71;100.00
9905;BME280;4991;43.566;27.820;2022-07-11T09:01:17;98691.53;;;22.63;100.00
9905;BME280;4991;43.566;27.820;2022-07-11T09:03:45;98679.16;;;22.53;100.00
9905;BME280;4991;43.566;27.820;2022-07-11T09:06:11;98684.72;;;22.57;100.00
9905;BME280;4991;43.566;27.820;2022-07-11T09:08:37;98686.53;;;22.39;100.00
9905;BME280;4991;43.566;27.820;2022-07-11T09:11:04;98690.31;;;22.60;100.00
9905;BME280;4991;43.566;27.820;2022-07-11T09:13:30;98692.81;;;22.76;100.00
9905;BME280;4991;43.566;27.820;2022-07-11T09:16:04;98694.41;;;22.80;100.00
9905;BME280;4991;43.566;27.820;2022-07-11T09:18:35;98700.84;;;22.88;100.00
9905;BME280;4991;43.566;27.820;2022-07-11T09:21:09;98692.97;;;23.04;100.00
9905;BME280;4991;43.566;27.820;2022-07-11T09:23:57;98693.75;;;23.01;100.00
9905;BME280;4991;43.566;27.820;2022-07-11T09:26:45;98692.50;;;22.88;100.00
9905;BME280;4991;43.566;27.820;2022-07-11T09:29:14;98687.41;;;23.00;100.00
9905;BME280;4991;43.566;27.820;2022-07-11T09:31:42;98678.72;;;23.09;100.00
9905;BME280;4991;43.566;27.820;2022-07-11T09:34:12;98684.31;;;23.16;100.00
9905;BME280;4991;43.566;27.820;2022-07-11T09:36:52;98686.78;;;23.28;100.00
9905;BME280;4991;43.566;27.820;2022-07-11T09:39:23;98678.91;;;23.51;100.00
9905;BME280;4991;43.566;27.820;2022-07-11T09:41:50;98695.72;;;23.86;100.00
9905;BME280;4991;43.566;27.820;2022-07-11T09:46:49;98695.03;;;24.14;100.00
9905;BME280;4991;43.566;27.820;2022-07-11T09:49:16;98687.88;;;24.27;100.00
9905;BME280;4991;43.566;27.820;2022-07-11T09:51:43;98692.22;;;24.60;100.00
9905;BME280;4991;43.566;27.820;2022-07-11T09:54:10;98691.91;;;25.83;100.00
9905;BME280;4991;43.566;27.820;2022-07-11T09:56:40;98693.41;;;28.01;91.84
9905;BME280;4991;43.566;27.820;2022-07-11T09:59:11;98691.88;;;27.97;88.02
9905;BME280;4991;43.566;27.820;2022-07-11T10:01:37;98693.31;;;27.11;89.55
9905;BME280;4991;43.566;27.820;2022-07-11T10:04:08;98689.16;;;27.26;90.45
9905;BME280;4991;43.566;27.820;2022-07-11T10:06:36;98685.84;;;27.98;81.93
9905;BME280;4991;43.566;27.820;2022-07-11T10:09:03;98698.03;;;26.77;88.71
9905;BME280;4991;43.566;27.820;2022-07-11T10:11:33;98694.34;;;25.74;96.31
9905;BME280;4991;43.566;27.820;2022-07-11T10:14:00;98692.00;;;26.34;91.97
9905;BME280;4991;43.566;27.820;2022-07-11T10:24:50;98698.47;;;29.87;62.50
9905;BME280;4991;43.566;27.820;2022-07-11T10:29:51;98691.38;;;31.43;55.05
9905;BME280;4991;43.566;27.820;2022-07-11T10:32:17;98694.75;;;29.74;62.90
9905;BME280;4991;43.566;27.820;2022-07-11T10:34:44;98685.84;;;30.63;61.52
9905;BME280;4991;43.566;27.820;2022-07-11T10:37:12;98694.56;;;31.29;56.93
9905;BME280;4991;43.566;27.820;2022-07-11T10:39:39;98694.16;;;30.18;61.12
9905;BME280;4991;43.566;27.820;2022-07-11T10:42:21;98695.03;;;30.15;61.17
9905;BME280;4991;43.566;27.820;2022-07-11T10:44:51;98701.72;;;31.34;57.77
9905;BME280;4991;43.566;27.820;2022-07-11T10:47:41;98690.66;;;32.22;51.71
9905;BME280;4991;43.566;27.820;2022-07-11T10:50:13;98691.97;;;33.91;46.08
9905;BME280;4991;43.566;27.820;2022-07-11T10:52:43;98690.94;;;33.21;46.67
9905;BME280;4991;43.566;27.820;2022-07-11T10:55:37;98691.47;;;33.28;46.69
9905;BME280;4991;43.566;27.820;2022-07-11T11:01:15;98693.91;;;32.08;54.11
9905;BME280;4991;43.566;27.820;2022-07-11T11:03:42;98694.41;;;33.89;45.46
9905;BME280;4991;43.566;27.820;2022-07-11T11:06:08;98691.81;;;34.26;43.11
9905;BME280;4991;43.566;27.820;2022-07-11T11:11:03;98700.91;;;30.89;50.88
9905;BME280;4991;43.566;27.820;2022-07-11T11:13:30;98699.00;;;29.63;58.59
9905;BME280;4991;43.566;27.820;2022-07-11T11:15:58;98694.81;;;28.66;63.05
9905;BME280;4991;43.566;27.820;2022-07-11T11:23:33;98686.94;;;31.59;52.55
9905;BME280;4991;43.566;27.820;2022-07-11T11:26:06;98690.94;;;31.86;49.93
9905;BME280;4991;43.566;27.820;2022-07-11T11:28:32;98695.72;;;32.27;47.42
9905;BME280;4991;43.566;27.820;2022-07-11T11:31:00;98696.72;;;32.08;47.39
9905;BME280;4991;43.566;27.820;2022-07-11T11:33:28;98698.25;;;30.82;49.19
9905;BME280;4991;43.566;27.820;2022-07-11T11:36:15;98687.72;;;30.54;51.11
9905;BME280;4991;43.566;27.820;2022-07-11T11:38:42;98696.13;;;32.88;45.76
9905;BME280;4991;43.566;27.820;2022-07-11T11:41:09;98687.16;;;32.43;46.64
9905;BME280;4991;43.566;27.820;2022-07-11T11:43:36;98689.94;;;32.55;48.32
9905;BME280;4991;43.566;27.820;2022-07-11T11:46:03;98690.03;;;33.24;46.01
9905;BME280;4991;43.566;27.820;2022-07-11T11:48:33;98690.81;;;33.89;44.76
9905;BME280;4991;43.566;27.820;2022-07-11T11:51:07;98686.72;;;33.81;43.26
9905;BME280;4991;43.566;27.820;2022-07-11T11:56:26;98705.03;;;32.74;44.51
9905;BME280;4991;43.566;27.820;2022-07-11T11:59:05;98699.00;;;31.72;44.24
9905;BME280;4991;43.566;27.820;2022-07-11T12:01:42;98702.78;;;32.19;44.91
9905;BME280;4991;43.566;27.820;2022-07-11T12:04:10;98701.75;;;32.75;43.51
9905;BME280;4991;43.566;27.820;2022-07-11T12:06:41;98700.78;;;33.50;42.33
9905;BME280;4991;43.566;27.820;2022-07-11T12:09:10;98698.50;;;34.10;43.23
9905;BME280;4991;43.566;27.820;2022-07-11T12:11:42;98698.25;;;34.26;41.39
9905;BME280;4991;43.566;27.820;2022-07-11T12:14:09;98693.63;;;34.90;40.57
9905;BME280;4991;43.566;27.820;2022-07-11T12:16:40;98701.22;;;36.34;37.91
9905;BME280;4991;43.566;27.820;2022-07-11T12:19:20;98701.75;;;36.14;36.10
9905;BME280;4991;43.566;27.820;2022-07-11T12:21:48;98690.78;;;36.96;36.60
9905;BME280;4991;43.566;27.820;2022-07-11T12:24:22;98698.66;;;35.85;36.72
9905;BME280;4991;43.566;27.820;2022-07-11T12:26:48;98703.47;;;34.37;40.10
9905;BME280;4991;43.566;27.820;2022-07-11T12:29:19;98704.75;;;34.75;38.63
9905;BME280;4991;43.566;27.820;2022-07-11T12:31:56;98710.16;;;33.69;40.82
9905;BME280;4991;43.566;27.820;2022-07-11T12:34:42;98701.78;;;32.25;45.01
9905;BME280;4991;43.566;27.820;2022-07-11T12:37:17;98710.00;;;31.95;47.46
9905;BME280;4991;43.566;27.820;2022-07-11T12:39:54;98704.13;;;33.24;44.59
9905;BME280;4991;43.566;27.820;2022-07-11T12:42:29;98704.34;;;33.29;42.80
9905;BME280;4991;43.566;27.820;2022-07-11T12:45:05;98705.13;;;31.54;45.02
9905;BME280;4991;43.566;27.820;2022-07-11T12:47:36;98705.03;;;29.61;49.30
9905;BME280;4991;43.566;27.820;2022-07-11T12:52:50;98695.03;;;32.10;47.61
9905;BME280;4991;43.566;27.820;2022-07-11T12:55:34;98692.38;;;33.25;43.27
9905;BME280;4991;43.566;27.820;2022-07-11T12:58:11;98699.25;;;33.58;42.56
9905;BME280;4991;43.566;27.820;2022-07-11T13:01:02;98690.44;;;32.41;42.04
9905;BME280;4991;43.566;27.820;2022-07-11T13:03:33;98695.94;;;33.38;39.77
9905;BME280;4991;43.566;27.820;2022-07-11T13:05:59;98689.66;;;32.88;40.40
9905;BME280;4991;43.566;27.820;2022-07-11T13:08:36;98692.13;;;31.73;42.41
9905;BME280;4991;43.566;27.820;2022-07-11T13:11:12;98694.47;;;32.28;40.78
9905;BME280;4991;43.566;27.820;2022-07-11T13:13:37;98695.91;;;33.17;38.54
9905;BME280;4991;43.566;27.820;2022-07-11T13:16:04;98707.53;;;32.72;37.03
9905;BME280;4991;43.566;27.820;2022-07-11T13:18:31;98695.00;;;32.98;37.35
9905;BME280;4991;43.566;27.820;2022-07-11T13:20:57;98697.00;;;32.98;37.20
9905;BME280;4991;43.566;27.820;2022-07-11T13:23:23;98691.09;;;34.04;34.81
9905;BME280;4991;43.566;27.820;2022-07-11T13:25:49;98691.88;;;33.82;35.06
9905;BME280;4991;43.566;27.820;2022-07-11T13:28:15;98687.25;;;34.68;34.47
9905;BME280;4991;43.566;27.820;2022-07-11T13:30:40;98696.16;;;35.06;31.78
9905;BME280;4991;43.566;27.820;2022-07-11T13:33:06;98689.25;;;33.66;33.94
9905;BME280;4991;43.566;27.820;2022-07-11T13:35:32;98691.97;;;33.91;32.52